Linneus, Missouri
Current Conditions -  °F | °C
As of 2:55 AM on Sunday 26 Oct 2014 (Local Time) from KIRK Reporting Station
Clear Clear  
Wind Chill: 52°   Ceiling: Unl
Heat Index: 52°   Visibility: 10mi
Dew Point: 39°   Wind: 6mph
Humidity: 61%   Direction: 60°ENE
Pressure: 30.03"   Gusts: NA
Location:  39.88°N, 93.19°W
Report Text: KIRK 260755Z AUTO 06005KT 10SM CLR 11/04 A3003 RMK AO2 SLP169 T01110039
Loading
Personal Weather Stations






























Interactive Weather Map
Tropical Storm Tracking
New forecast layout! Learn more

10-Day Weather Forecast

Advertisements
Track Severe Weather on mobile